Time;durP1;ratioP1;P1;durP2;ratioP2;P2;SDS_P1;SDS_P2;PMS_P1;PMS_P2;Temp;Humidity;BMP_temperature;BMP_pressure;BME280_temperature;BME280_humidity;BME280_pressure;Samples;Min_cycle;Max_cycle;Signal;HPM_P1;HPM_P2
2023/06/15 00:01:52;;;;;;;3.75;1.38;;;;;;;22.69;60.43;95953.31;5032953;28;20049;-26
2023/06/15 00:04:18;;;;;;;2.33;1.50;;;;;;;22.89;59.63;95947.34;5033058;28;20100;-26
2023/06/15 00:06:44;;;;;;;3.05;1.40;;;;;;;22.79;60.15;95946.94;5034382;28;20053;-26
2023/06/15 00:09:09;;;;;;;3.85;1.10;;;;;;;22.82;59.88;95950.69;5037564;28;20489;-26
2023/06/15 00:11:35;;;;;;;1.95;1.30;;;;;;;22.87;59.17;95938.84;5036866;28;20104;-26
2023/06/15 00:14:00;;;;;;;1.75;1.17;;;;;;;22.86;59.51;95938.09;5036998;28;20036;-26
2023/06/15 00:16:30;;;;;;;2.58;1.30;;;;;;;22.99;58.74;95939.47;5036644;28;20145;-26
2023/06/15 00:18:57;;;;;;;2.72;1.20;;;;;;;22.85;59.14;95941.38;5044293;28;20108;-26
2023/06/15 00:21:27;;;;;;;4.07;1.20;;;;;;;22.97;58.58;95947.53;5037076;28;20110;-26
2023/06/15 00:23:52;;;;;;;3.97;1.30;;;;;;;22.93;59.17;95945.03;5036533;28;20053;-26
2023/06/15 00:26:17;;;;;;;1.50;1.10;;;;;;;22.83;59.41;95946.66;5036676;28;21358;-26
2023/06/15 00:28:43;;;;;;;3.75;1.45;;;;;;;22.68;59.97;95943.53;5036592;28;20033;-27
2023/06/15 00:31:08;;;;;;;4.35;1.27;;;;;;;22.64;60.08;95934.75;5036843;28;20021;-26
2023/06/15 00:33:34;;;;;;;4.10;1.17;;;;;;;22.71;59.58;95948.03;5036806;28;20029;-26
2023/06/15 00:35:59;;;;;;;1.30;1.02;;;;;;;22.89;59.07;95936.28;5036904;28;20490;-26
2023/06/15 00:38:25;;;;;;;1.75;1.08;;;;;;;22.86;59.51;95942.88;5036657;28;20017;-26
2023/06/15 00:40:50;;;;;;;4.30;1.20;;;;;;;22.78;59.82;95947.47;5036252;28;20072;-26
2023/06/15 00:43:18;;;;;;;1.52;1.23;;;;;;;22.84;59.66;95946.16;5036045;28;20092;-27
2023/06/15 00:45:44;;;;;;;2.33;1.10;;;;;;;22.77;60.03;95941.19;5043708;28;20096;-26
2023/06/15 00:48:10;;;;;;;1.67;1.20;;;;;;;22.76;59.98;95938.94;5036610;28;20116;-27
2023/06/15 00:50:38;;;;;;;1.58;1.20;;;;;;;22.76;59.33;95944.47;5041815;28;20025;-26
2023/06/15 00:53:05;;;;;;;2.20;1.42;;;;;;;22.84;59.71;95953.69;5036164;28;20076;-26
2023/06/15 00:55:34;;;;;;;2.33;1.40;;;;;;;22.81;59.82;95952.72;5043616;28;20021;-26
2023/06/15 00:58:01;;;;;;;2.65;1.45;;;;;;;22.73;60.03;95942.72;5041311;28;20104;-27
2023/06/15 01:00:29;;;;;;;2.85;1.25;;;;;;;22.80;59.77;95942.16;5040146;28;20374;-26
2023/06/15 01:02:56;;;;;;;2.42;1.60;;;;;;;22.78;59.91;95939.91;5035945;28;20029;-26
2023/06/15 01:05:23;;;;;;;3.63;1.40;;;;;;;22.88;60.06;95940.31;5036638;28;20131;-26
2023/06/15 01:07:52;;;;;;;2.58;1.40;;;;;;;22.94;59.63;95938.25;5043607;28;20478;-27
2023/06/15 01:10:21;;;;;;;4.32;1.38;;;;;;;22.83;59.90;95935.63;5036177;28;20025;-26
2023/06/15 01:12:50;;;;;;;3.85;1.63;;;;;;;22.99;59.49;95940.22;5035755;28;20031;-27
2023/06/15 01:15:16;;;;;;;2.15;1.27;;;;;;;22.77;60.23;95937.66;5043317;28;20025;-26
2023/06/15 01:17:45;;;;;;;3.17;1.48;;;;;;;22.82;59.98;95936.88;5035634;28;20364;-26
2023/06/15 01:20:26;;;;;;;2.72;1.40;;;;;;;22.82;60.00;95936.88;5035905;28;20032;-27
2023/06/15 01:23:10;;;;;;;4.05;1.50;;;;;;;22.74;60.24;95938.69;5035712;28;20026;-26
2023/06/15 01:25:45;;;;;;;2.85;1.38;;;;;;;22.85;59.83;95933.84;5036105;28;20381;-26
2023/06/15 01:28:13;;;;;;;3.40;1.33;;;;;;;22.83;60.01;95935.63;5036149;28;20383;-28
2023/06/15 01:30:50;;;;;;;2.88;1.42;;;;;;;22.78;60.40;95936.41;5035893;28;20017;-26
2023/06/15 01:33:16;;;;;;;2.08;1.50;;;;;;;22.90;59.84;95933.00;5035586;28;20038;-28
2023/06/15 01:35:41;;;;;;;2.67;1.50;;;;;;;22.72;60.40;95930.94;5035430;28;20020;-26
2023/06/15 01:38:07;;;;;;;3.60;1.50;;;;;;;22.75;60.59;95921.56;5035955;28;20025;-26
2023/06/15 01:40:36;;;;;;;2.38;1.38;;;;;;;22.81;60.30;95919.53;5035729;28;20056;-27
2023/06/15 01:43:04;;;;;;;2.58;1.45;;;;;;;22.72;60.41;95911.56;5035235;28;20513;-26
2023/06/15 01:45:30;;;;;;;1.70;1.40;;;;;;;22.81;60.41;95914.00;5042758;28;20386;-27
2023/06/15 01:47:56;;;;;;;4.03;1.30;;;;;;;22.81;59.98;95913.25;5035166;28;20028;-26
2023/06/15 01:50:24;;;;;;;2.78;1.30;;;;;;;22.73;60.15;95904.03;5035714;28;20022;-26
2023/06/15 01:52:49;;;;;;;3.33;1.40;;;;;;;22.68;60.10;95915.88;5035956;28;20023;-26
2023/06/15 01:55:15;;;;;;;2.33;1.20;;;;;;;22.71;60.59;95909.31;5035246;28;20017;-26
2023/06/15 01:57:41;;;;;;;2.45;1.40;;;;;;;22.78;59.57;95898.47;5035392;28;20042;-27
2023/06/15 02:00:10;;;;;;;3.55;1.17;;;;;;;22.75;59.79;95893.94;5035145;28;20025;-26
2023/06/15 02:02:36;;;;;;;1.98;1.13;;;;;;;22.81;60.01;95891.16;5042339;28;20112;-26
2023/06/15 02:05:03;;;;;;;1.90;1.30;;;;;;;22.68;60.07;95891.75;5034961;28;20033;-27
2023/06/15 02:07:29;;;;;;;2.25;1.02;;;;;;;22.90;59.29;95888.00;5034974;28;20033;-27
2023/06/15 02:09:55;;;;;;;1.35;1.20;;;;;;;22.65;59.70;95878.97;5035016;28;20021;-27
2023/06/15 02:12:21;;;;;;;2.75;1.20;;;;;;;22.78;59.49;95889.41;5038525;28;20083;-26
2023/06/15 02:14:48;;;;;;;1.55;1.17;;;;;;;22.63;59.58;95889.03;5037842;28;20027;-26
2023/06/15 02:17:14;;;;;;;2.65;1.50;;;;;;;22.76;59.51;95891.94;5034671;28;20478;-26
2023/06/15 02:19:40;;;;;;;1.67;1.17;;;;;;;22.79;59.18;95888.16;5034723;28;20079;-26
2023/06/15 02:22:06;;;;;;;2.42;1.38;;;;;;;22.91;58.83;95884.72;5034702;28;20463;-26
2023/06/15 02:24:31;;;;;;;3.50;1.50;;;;;;;22.87;58.92;95889.06;5034561;28;20028;-28
2023/06/15 02:26:57;;;;;;;2.05;1.20;;;;;;;22.61;59.53;95884.06;5042041;28;20386;-26
2023/06/15 02:29:22;;;;;;;2.85;1.20;;;;;;;22.80;59.06;95881.34;5034309;28;20093;-26
2023/06/15 02:31:48;;;;;;;1.98;1.10;;;;;;;22.72;59.06;95883.19;5034061;28;20047;-26
2023/06/15 02:34:13;;;;;;;1.63;1.10;;;;;;;22.69;59.22;95884.22;5034386;28;20108;-27
2023/06/15 02:36:39;;;;;;;1.85;1.15;;;;;;;22.68;59.47;95879.97;5034430;28;20032;-26
2023/06/15 02:39:05;;;;;;;1.85;1.33;;;;;;;22.76;59.03;95886.41;5034188;28;20025;-26
2023/06/15 02:41:31;;;;;;;2.67;1.52;;;;;;;22.73;59.22;95885.44;5034463;28;20029;-26
2023/06/15 02:43:56;;;;;;;2.85;1.10;;;;;;;22.58;59.84;95880.31;5034321;28;20112;-26
2023/06/15 02:46:23;;;;;;;1.50;1.13;;;;;;;22.57;59.31;95889.88;5034578;28;20021;-27
2023/06/15 02:48:51;;;;;;;2.25;1.65;;;;;;;22.42;60.30;95889.53;5042154;28;20025;-26
2023/06/15 02:51:20;;;;;;;1.85;1.20;;;;;;;22.52;59.79;95879.63;5033933;28;20071;-27
2023/06/15 02:53:48;;;;;;;3.05;1.40;;;;;;;22.73;59.00;95885.44;5035470;28;20385;-26
2023/06/15 02:56:18;;;;;;;3.25;1.20;;;;;;;22.70;59.57;95880.19;5044074;28;20378;-27
2023/06/15 02:58:54;;;;;;;1.80;1.40;;;;;;;22.75;59.31;95882.88;5034125;28;20049;-26
2023/06/15 03:01:23;;;;;;;2.03;1.40;;;;;;;22.60;59.48;95893.63;5034337;28;20418;-28
2023/06/15 03:03:50;;;;;;;2.22;1.75;;;;;;;22.63;59.58;95897.34;5033832;28;20026;-26
2023/06/15 03:06:16;;;;;;;1.55;1.30;;;;;;;22.64;59.59;95905.13;5033953;28;20025;-26
2023/06/15 03:08:42;;;;;;;2.50;1.58;;;;;;;22.61;59.76;95894.38;5033613;28;20026;-27
2023/06/15 03:11:08;;;;;;;2.30;1.50;;;;;;;22.71;59.78;95901.78;5033818;28;20077;-26
2023/06/15 03:13:34;;;;;;;2.67;1.40;;;;;;;22.58;60.03;95907.94;5033709;28;20143;-26
2023/06/15 03:16:02;;;;;;;1.55;1.30;;;;;;;22.60;59.62;95912.22;5033830;28;20021;-26
2023/06/15 03:18:29;;;;;;;1.60;1.48;;;;;;;22.73;59.46;95907.53;5033615;28;20032;-26
2023/06/15 03:20:57;;;;;;;4.00;1.67;;;;;;;22.74;59.75;95913.81;5033538;28;20022;-27
2023/06/15 03:23:23;;;;;;;2.42;1.42;;;;;;;22.65;59.83;95908.63;5040801;28;20025;-26
2023/06/15 03:25:51;;;;;;;2.38;1.40;;;;;;;;;;5034180;28;20116;-26
2023/06/15 03:28:19;;;;;;;1.65;1.30;;;;;;;22.73;59.65;95907.53;5040729;28;20489;-26
2023/06/15 03:30:46;;;;;;;3.88;1.60;;;;;;;22.66;60.33;95912.88;5034230;28;20025;-27
2023/06/15 03:33:13;;;;;;;3.20;1.60;;;;;;;22.82;59.79;95903.69;5033575;28;20378;-26
2023/06/15 03:35:39;;;;;;;3.13;1.58;;;;;;;22.56;60.37;95904.97;5033537;28;20043;-26
2023/06/15 03:38:05;;;;;;;4.50;1.55;;;;;;;22.78;59.48;95903.97;5037522;28;20013;-26
2023/06/15 03:40:36;;;;;;;2.38;1.67;;;;;;;22.52;60.50;95915.53;5033905;28;20050;-27
2023/06/15 03:43:02;;;;;;;2.25;1.52;;;;;;;22.69;59.91;95914.63;5033432;28;20104;-26
2023/06/15 03:45:27;;;;;;;3.15;1.42;;;;;;;22.60;60.23;95915.72;5033488;28;20443;-27
2023/06/15 03:47:53;;;;;;;2.30;1.52;;;;;;;22.63;60.06;95911.16;5033271;28;20021;-26
2023/06/15 03:50:18;;;;;;;2.72;1.88;;;;;;;22.48;60.53;95912.34;5033106;28;20053;-27
2023/06/15 03:52:44;;;;;;;4.45;1.90;;;;;;;22.48;60.43;95915.09;5032901;28;20025;-26
2023/06/15 03:55:12;;;;;;;2.10;1.52;;;;;;;22.43;60.50;95917.91;5033148;28;20014;-26
2023/06/15 03:57:37;;;;;;;5.38;1.40;;;;;;;22.63;60.07;95919.44;5033483;28;20026;-26
2023/06/15 04:00:07;;;;;;;2.38;1.60;;;;;;;22.47;60.44;95919.13;5035837;28;20108;-27
2023/06/15 04:02:33;;;;;;;2.45;1.50;;;;;;;22.58;60.23;95916.25;5033032;28;20021;-27
2023/06/15 04:04:58;;;;;;;2.50;1.60;;;;;;;22.66;59.98;95918.41;5033286;28;20035;-26
2023/06/15 04:07:24;;;;;;;1.70;1.40;;;;;;;22.63;60.21;95913.91;5033351;28;20056;-27
2023/06/15 04:09:50;;;;;;;3.85;1.85;;;;;;;22.51;60.46;95924.34;5033073;28;20832;-26
2023/06/15 04:12:15;;;;;;;2.60;1.50;;;;;;;22.38;60.64;95922.22;5033222;28;20021;-26
2023/06/15 04:14:41;;;;;;;3.67;1.40;;;;;;;22.54;60.36;95920.56;5033375;28;20055;-26
2023/06/15 04:17:06;;;;;;;1.60;1.40;;;;;;;22.50;60.52;95915.31;5033256;28;20021;-26
2023/06/15 04:19:32;;;;;;;2.42;1.80;;;;;;;22.48;60.47;95915.09;5032911;28;20033;-27
2023/06/15 04:21:57;;;;;;;2.60;1.70;;;;;;;22.52;60.13;95914.78;5032909;28;20026;-26
2023/06/15 04:24:23;;;;;;;3.95;1.60;;;;;;;22.65;60.19;95916.91;5033039;28;20072;-26
2023/06/15 04:26:48;;;;;;;2.72;1.60;;;;;;;22.40;60.45;95914.16;5033024;28;20014;-26
2023/06/15 04:29:18;;;;;;;2.78;1.63;;;;;;;22.45;60.49;95916.13;5033403;28;20406;-26
2023/06/15 04:31:44;;;;;;;3.85;1.40;;;;;;;22.55;59.76;95914.50;5039449;28;20052;-26
2023/06/15 04:34:11;;;;;;;3.13;1.40;;;;;;;22.49;60.45;95919.34;5033232;28;20094;-27
2023/06/15 04:36:38;;;;;;;3.45;1.73;;;;;;;22.60;59.93;95917.75;5040163;28;20025;-26
2023/06/15 04:39:04;;;;;;;1.80;1.45;;;;;;;22.64;59.62;95916.16;5032789;28;20492;-26
2023/06/15 04:41:31;;;;;;;1.83;1.70;;;;;;;22.51;60.15;95922.31;5033000;28;20053;-26
2023/06/15 04:43:57;;;;;;;3.67;1.38;;;;;;;22.72;59.47;95919.88;5032823;28;20026;-26
2023/06/15 04:46:23;;;;;;;2.50;1.52;;;;;;;22.51;59.75;95925.09;5033211;28;20022;-26
2023/06/15 04:48:49;;;;;;;2.30;1.48;;;;;;;22.72;59.44;95930.19;5032783;28;20030;-26
2023/06/15 04:51:15;;;;;;;3.90;1.55;;;;;;;22.64;59.33;95923.72;5032474;28;20018;-26
2023/06/15 04:53:44;;;;;;;2.50;1.50;;;;;;;22.51;59.85;95925.09;5033874;28;20029;-26
2023/06/15 04:56:11;;;;;;;2.63;1.27;;;;;;;22.52;59.53;95932.13;5041037;28;20470;-26
2023/06/15 04:58:36;;;;;;;4.03;1.20;;;;;;;22.49;59.73;95930.41;5035831;28;20109;-26
2023/06/15 05:01:02;;;;;;;2.90;1.50;;;;;;;22.63;59.03;95933.25;5043576;28;20023;-26
2023/06/15 05:03:27;;;;;;;2.03;1.35;;;;;;;22.69;58.67;95928.44;5036098;28;20021;-26
2023/06/15 05:05:53;;;;;;;2.47;1.30;;;;;;;22.50;59.35;95940.16;5036262;28;20021;-26
2023/06/15 05:08:18;;;;;;;3.78;1.50;;;;;;;22.49;59.22;95933.19;5035857;28;20096;-27
2023/06/15 05:10:44;;;;;;;2.58;1.48;;;;;;;22.47;59.32;95944.00;5036049;28;20126;-26
2023/06/15 05:13:10;;;;;;;1.65;1.20;;;;;;;22.57;58.79;95949.91;5049619;28;20021;-27
2023/06/15 05:15:35;;;;;;;2.70;1.30;;;;;;;22.59;59.06;95947.41;5036052;28;20022;-26
2023/06/15 05:18:00;;;;;;;1.63;1.27;;;;;;;22.51;59.30;95949.22;5036205;28;20032;-27
2023/06/15 05:20:26;;;;;;;2.08;1.30;;;;;;;22.74;58.47;95952.53;5035677;28;20017;-26
2023/06/15 05:22:52;;;;;;;2.53;1.58;;;;;;;22.37;59.63;95955.91;5035749;28;20078;-26
2023/06/15 05:25:19;;;;;;;5.90;4.90;;;;;;;22.64;59.25;95957.63;5035769;28;20102;-27
2023/06/15 05:27:44;;;;;;;5.20;4.75;;;;;;;22.63;59.03;95949.84;5035549;28;20022;-26
2023/06/15 05:30:11;;;;;;;6.28;3.25;;;;;;;22.49;59.65;95949.00;5036180;28;20103;-26
2023/06/15 05:32:38;;;;;;;4.57;2.45;;;;;;;22.59;59.75;95952.91;5041432;28;20107;-27
2023/06/15 05:35:08;;;;;;;2.45;1.88;;;;;;;22.59;59.84;95941.88;5035713;28;20063;-26
2023/06/15 05:37:34;;;;;;;2.30;2.10;;;;;;;22.65;59.88;95950.09;5035589;28;20489;-26
2023/06/15 05:40:02;;;;;;;2.67;2.00;;;;;;;22.74;59.58;95947.75;5035219;28;20491;-26
2023/06/15 05:42:27;;;;;;;3.28;1.70;;;;;;;22.62;59.88;95956.66;5035819;28;20026;-26
2023/06/15 05:44:53;;;;;;;2.53;1.70;;;;;;;22.63;59.57;95952.63;5035309;28;20025;-26
2023/06/15 05:47:19;;;;;;;4.75;1.80;;;;;;;22.64;59.57;95963.16;5035635;28;20021;-26
2023/06/15 05:49:44;;;;;;;4.30;1.60;;;;;;;22.71;59.76;95964.63;5042248;28;20021;-26
2023/06/15 05:52:10;;;;;;;2.78;1.60;;;;;;;22.60;59.85;95961.97;5035645;28;20022;-26
2023/06/15 05:54:36;;;;;;;2.95;1.85;;;;;;;22.85;59.19;95963.50;5035229;28;20455;-27
2023/06/15 05:57:01;;;;;;;2.95;1.60;;;;;;;22.74;59.49;95974.63;5034975;28;20021;-27
2023/06/15 05:59:27;;;;;;;1.70;1.58;;;;;;;22.59;59.88;95972.28;5034924;28;20022;-26
2023/06/15 06:01:53;;;;;;;2.45;1.80;;;;;;;22.57;60.45;95981.06;5035027;28;20033;-27
2023/06/15 06:04:19;;;;;;;2.25;1.85;;;;;;;22.70;59.88;95980.44;5039594;28;20390;-27
2023/06/15 06:06:44;;;;;;;5.88;1.90;;;;;;;22.71;59.65;95983.97;5037245;28;20374;-26
2023/06/15 06:09:10;;;;;;;3.63;2.15;;;;;;;;;;5042293;28;20036;-26
2023/06/15 06:11:35;;;;;;;2.65;1.60;;;;;;;22.51;60.61;95991.41;5034824;28;20029;-27
2023/06/15 06:14:01;;;;;;;2.28;1.58;;;;;;;22.50;60.56;95980.91;5034896;28;20029;-27
2023/06/15 06:16:27;;;;;;;4.05;1.90;;;;;;;22.71;59.52;95986.72;5034900;28;20048;-27
2023/06/15 06:18:52;;;;;;;5.28;2.00;;;;;;;22.63;60.10;95983.00;5041684;28;20490;-27
2023/06/15 06:21:18;;;;;;;3.67;1.60;;;;;;;22.60;60.04;95992.38;5035330;28;20025;-26
2023/06/15 06:23:43;;;;;;;4.47;1.67;;;;;;;22.56;60.29;95984.34;5035111;28;20025;-27
2023/06/15 06:26:08;;;;;;;1.95;1.52;;;;;;;22.58;59.95;95990.13;5034552;28;20029;-26
2023/06/15 06:28:35;;;;;;;3.25;1.50;;;;;;;22.53;60.33;95994.41;5034658;28;20065;-26
2023/06/15 06:31:00;;;;;;;3.00;1.70;;;;;;;22.77;59.66;95995.72;5034815;28;20039;-26
2023/06/15 06:33:25;;;;;;;1.90;1.70;;;;;;;22.56;59.71;95985.09;5034844;28;20109;-26
2023/06/15 06:35:51;;;;;;;1.92;1.50;;;;;;;22.60;59.96;95992.38;5034432;28;20462;-26
2023/06/15 06:38:16;;;;;;;5.43;1.55;;;;;;;22.46;59.91;95995.00;5034625;28;20024;-26
2023/06/15 06:40:42;;;;;;;6.13;1.60;;;;;;;22.54;59.57;95993.16;5047832;28;20041;-26
2023/06/15 06:43:07;;;;;;;5.63;2.03;;;;;;;22.61;59.93;95991.09;5034050;28;20025;-26
2023/06/15 06:45:33;;;;;;;2.85;1.45;;;;;;;22.73;59.18;95992.50;5034177;28;20112;-27
2023/06/15 06:47:58;;;;;;;2.63;1.75;;;;;;;22.43;59.96;96001.53;5034041;28;20355;-26
2023/06/15 06:50:23;;;;;;;3.30;1.67;;;;;;;22.50;59.79;96006.50;5034004;28;20600;-26
2023/06/15 06:52:49;;;;;;;3.70;1.58;;;;;;;22.66;59.73;96009.63;5044013;28;20021;-27
2023/06/15 06:55:15;;;;;;;1.80;1.50;;;;;;;22.73;59.96;95995.25;5038914;28;20027;-27
2023/06/15 06:57:40;;;;;;;1.83;1.60;;;;;;;22.53;59.83;96001.94;5034247;28;20470;-26
2023/06/15 07:00:06;;;;;;;5.22;1.80;;;;;;;22.48;60.64;96013.81;5033813;28;20410;-27
2023/06/15 07:02:32;;;;;;;3.13;1.35;;;;;;;22.70;59.75;96004.56;5033651;28;20080;-26
2023/06/15 07:04:58;;;;;;;3.20;1.60;;;;;;;22.64;59.71;96001.84;5034117;28;20016;-27
2023/06/15 07:07:23;;;;;;;2.28;1.55;;;;;;;22.71;59.24;95997.78;5032695;28;20079;-27
2023/06/15 07:09:49;;;;;;;3.42;1.67;;;;;;;22.85;59.30;96010.50;5034311;28;20108;-26
2023/06/15 07:12:14;;;;;;;5.05;1.67;;;;;;;;;;5034019;28;20013;-27
2023/06/15 07:14:40;;;;;;;2.80;1.70;;;;;;;22.84;59.39;95997.94;5033895;28;20053;-27
2023/06/15 07:17:06;;;;;;;2.25;1.88;;;;;;;22.62;59.99;95998.88;5033189;28;20021;-26
2023/06/15 07:19:31;;;;;;;1.95;1.70;;;;;;;22.59;59.85;95999.91;5032238;28;20048;-26
2023/06/15 07:21:56;;;;;;;2.72;1.80;;;;;;;22.84;59.32;95995.91;5033722;28;20021;-27
2023/06/15 07:24:22;;;;;;;3.33;2.22;;;;;;;22.81;59.93;95996.94;5048401;28;20475;-26
2023/06/15 07:26:47;;;;;;;4.15;2.00;;;;;;;22.62;60.14;95990.59;5033816;28;20104;-26
2023/06/15 07:29:13;;;;;;;2.10;1.90;;;;;;;22.71;60.23;95987.47;5033566;28;20022;-26
2023/06/15 07:31:38;;;;;;;2.70;2.00;;;;;;;22.80;59.80;95989.16;5033967;28;20459;-26
2023/06/15 07:34:04;;;;;;;3.00;2.17;;;;;;;22.85;59.78;95989.13;5033527;28;20175;-26
2023/06/15 07:36:29;;;;;;;2.22;1.98;;;;;;;22.72;59.69;95993.75;5033295;28;20028;-26
2023/06/15 07:38:56;;;;;;;2.53;2.10;;;;;;;22.87;59.60;95983.09;5033407;28;20045;-27
2023/06/15 07:41:22;;;;;;;2.13;1.92;;;;;;;22.89;59.44;95986.06;5033948;28;20021;-27
2023/06/15 07:43:47;;;;;;;2.95;2.20;;;;;;;22.91;59.50;95986.28;5033402;28;20489;-26
2023/06/15 07:46:13;;;;;;;3.17;2.17;;;;;;;22.68;59.96;95985.00;5033250;28;20443;-28
2023/06/15 07:48:38;;;;;;;2.25;2.00;;;;;;;22.85;59.30;95983.59;5033279;28;20031;-27
2023/06/15 07:51:04;;;;;;;2.90;2.17;;;;;;;22.84;59.49;95989.63;5033357;28;20482;-27
2023/06/15 07:53:29;;;;;;;3.70;2.53;;;;;;;22.73;60.08;95989.72;5033829;28;20017;-26
2023/06/15 07:55:55;;;;;;;2.70;2.35;;;;;;;22.91;59.88;95997.34;5033323;28;20352;-28
2023/06/15 07:58:20;;;;;;;2.00;1.83;;;;;;;22.79;60.08;95993.19;5033276;28;20021;-26
2023/06/15 08:00:46;;;;;;;3.13;2.28;;;;;;;22.78;59.87;96000.00;5033021;28;20022;-27
2023/06/15 08:03:11;;;;;;;3.58;2.28;;;;;;;22.85;59.44;95994.66;5033310;28;20021;-26
2023/06/15 08:05:37;;;;;;;4.43;2.13;;;;;;;22.77;60.05;95984.66;5033407;28;20057;-26
2023/06/15 08:08:02;;;;;;;3.47;2.20;;;;;;;22.76;59.72;95994.97;5033181;28;20116;-27
2023/06/15 08:10:32;;;;;;;4.30;2.58;;;;;;;22.86;59.54;95987.13;5033031;28;20029;-27
2023/06/15 08:12:57;;;;;;;4.07;2.38;;;;;;;22.92;58.92;95985.78;5040436;28;20036;-26
2023/06/15 08:15:23;;;;;;;2.78;2.38;;;;;;;23.05;58.77;95984.38;5032988;28;20033;-27
2023/06/15 08:17:48;;;;;;;2.47;2.00;;;;;;;22.96;59.29;95979.22;5032985;28;20032;-26
2023/06/15 08:20:15;;;;;;;2.92;2.00;;;;;;;23.01;59.48;95976.38;5032981;28;20040;-27
2023/06/15 08:22:41;;;;;;;2.75;2.30;;;;;;;23.08;58.97;95975.81;5033416;28;20390;-27
2023/06/15 08:25:08;;;;;;;3.78;2.40;;;;;;;23.11;59.63;95983.06;5033167;28;20065;-27
2023/06/15 08:27:34;;;;;;;2.30;2.10;;;;;;;23.18;59.05;95985.22;5033205;28;20029;-27
2023/06/15 08:29:59;;;;;;;2.45;2.25;;;;;;;23.33;58.34;95978.53;5035794;28;20092;-28
2023/06/15 08:32:25;;;;;;;4.25;2.40;;;;;;;23.21;58.49;95984.19;5036785;28;20107;-27
2023/06/15 08:34:52;;;;;;;2.40;2.20;;;;;;;23.32;58.36;95983.31;5036634;28;20104;-27
2023/06/15 08:37:17;;;;;;;3.45;2.58;;;;;;;23.29;58.79;95989.88;5036486;28;20025;-26
2023/06/15 08:39:42;;;;;;;4.70;2.83;;;;;;;23.29;58.72;95985.09;5043854;28;20052;-28
2023/06/15 08:42:08;;;;;;;4.45;3.03;;;;;;;23.29;58.69;95996.16;5043749;28;20017;-27
2023/06/15 08:44:34;;;;;;;2.63;2.42;;;;;;;23.28;58.58;95993.91;5036444;28;20481;-27
2023/06/15 08:47:02;;;;;;;3.80;2.20;;;;;;;23.20;58.38;95993.00;5036253;28;20064;-27
2023/06/15 08:49:30;;;;;;;3.22;2.15;;;;;;;23.18;58.87;95999.06;5036396;28;20017;-26
2023/06/15 08:51:56;;;;;;;5.85;2.35;;;;;;;23.16;59.65;96004.38;5038551;28;20017;-26
2023/06/15 08:54:23;;;;;;;2.90;2.58;;;;;;;23.39;58.56;96004.84;5046730;28;20024;-26
2023/06/15 08:56:49;;;;;;;2.53;2.13;;;;;;;23.46;58.77;96003.53;5036971;28;20367;-26
2023/06/15 08:59:15;;;;;;;3.83;2.15;;;;;;;23.43;58.55;96005.31;5046905;28;20017;-27
2023/06/15 09:01:43;;;;;;;2.30;2.10;;;;;;;23.58;58.53;96005.66;5036396;28;20029;-26
2023/06/15 09:04:09;;;;;;;2.25;1.90;;;;;;;23.58;58.26;96008.44;5036248;28;20025;-26
2023/06/15 09:06:34;;;;;;;3.95;2.53;;;;;;;23.46;58.55;96014.59;5034760;28;20386;-27
2023/06/15 09:09:00;;;;;;;2.30;2.00;;;;;;;23.45;58.55;96007.56;5043737;28;20025;-27
2023/06/15 09:11:26;;;;;;;2.80;2.20;;;;;;;23.56;57.98;96013.72;5036036;28;20041;-27
2023/06/15 09:13:54;;;;;;;2.40;2.20;;;;;;;23.60;57.80;96007.91;5036616;28;20449;-26
2023/06/15 09:16:20;;;;;;;3.05;2.30;;;;;;;23.47;58.73;96010.56;5035883;28;20108;-27
2023/06/15 09:18:53;;;;;;;3.67;2.67;;;;;;;23.58;57.96;96007.69;5049374;28;20053;-26
2023/06/15 09:21:22;;;;;;;5.63;2.63;;;;;;;23.50;58.40;96010.28;5036438;28;20024;-27
2023/06/15 09:23:48;;;;;;;3.65;2.53;;;;;;;23.51;58.10;96011.78;5036099;28;20509;-27
2023/06/15 09:26:23;;;;;;;3.78;2.85;;;;;;;23.53;58.25;96019.56;5040824;28;20036;-27
2023/06/15 09:28:49;;;;;;;3.08;2.78;;;;;;;23.57;58.29;96015.22;5035742;28;20053;-27
2023/06/15 09:31:29;;;;;;;7.65;2.90;;;;;;;23.48;58.65;96029.41;5035547;28;20100;-27
2023/06/15 09:34:01;;;;;;;3.22;2.85;;;;;;;23.61;57.89;96037.81;5035583;28;20064;-27
2023/06/15 09:36:26;;;;;;;3.10;2.67;;;;;;;23.55;57.83;96026.06;5035372;28;20347;-27
2023/06/15 09:38:54;;;;;;;7.13;2.75;;;;;;;23.61;57.70;96021.19;5035213;28;20024;-28
2023/06/15 09:41:20;;;;;;;3.92;3.22;;;;;;;23.64;57.80;96019.41;5035813;28;20021;-26
2023/06/15 09:43:46;;;;;;;3.63;3.00;;;;;;;23.64;57.68;96022.94;5042838;28;20033;-26
2023/06/15 09:46:13;;;;;;;5.78;3.08;;;;;;;23.55;57.17;96022.56;5035504;28;20021;-27
2023/06/15 09:48:40;;;;;;;3.35;3.05;;;;;;;23.66;57.65;96016.13;5035066;28;20021;-26
2023/06/15 09:51:06;;;;;;;3.58;3.10;;;;;;;23.62;57.95;96019.19;5035146;28;20022;-27
2023/06/15 09:53:32;;;;;;;4.43;2.78;;;;;;;23.66;57.63;96024.44;5034916;28;20116;-28
2023/06/15 09:56:01;;;;;;;6.30;2.97;;;;;;;23.55;57.92;96022.56;5035571;28;20109;-28
2023/06/15 09:58:29;;;;;;;3.92;2.97;;;;;;;23.75;57.09;96027.56;5034842;28;20049;-28
2023/06/15 10:01:03;;;;;;;3.83;3.28;;;;;;;23.50;57.80;96023.31;5042214;28;20485;-27
2023/06/15 10:03:31;;;;;;;3.88;2.70;;;;;;;23.55;57.81;96022.56;5035037;28;20056;-27
2023/06/15 10:06:01;;;;;;;4.00;3.10;;;;;;;23.67;57.31;96023.91;5034963;28;20071;-27
2023/06/15 10:08:30;;;;;;;6.00;2.95;;;;;;;23.63;57.28;96015.88;5048137;28;20386;-27
2023/06/15 10:10:58;;;;;;;3.80;3.20;;;;;;;23.79;56.15;96022.50;5034807;28;20079;-27
2023/06/15 10:13:35;;;;;;;7.03;2.95;;;;;;;23.68;55.94;96019.13;5041888;28;20488;-27
2023/06/15 10:16:03;;;;;;;3.30;3.00;;;;;;;23.85;55.21;96031.47;5035167;28;20032;-27
2023/06/15 10:18:29;;;;;;;3.70;3.40;;;;;;;23.87;55.69;96025.41;5034451;28;20104;-27
2023/06/15 10:20:58;;;;;;;4.70;4.15;;;;;;;23.88;55.85;96033.19;5034538;28;20528;-27
2023/06/15 10:23:26;;;;;;;7.20;3.50;;;;;;;23.75;55.46;96030.34;5048564;28;20402;-27
2023/06/15 10:25:55;;;;;;;7.47;4.05;;;;;;;23.66;55.92;96024.44;5034707;28;20044;-27
2023/06/15 10:28:23;;;;;;;5.07;3.72;;;;;;;23.84;55.34;96021.66;5035035;28;20076;-27
2023/06/15 10:31:03;;;;;;;5.13;3.85;;;;;;;23.94;55.32;96022.78;5034204;28;20055;-27
2023/06/15 10:33:32;;;;;;;6.15;4.03;;;;;;;23.86;55.42;96027.41;5041748;28;20418;-27
2023/06/15 10:36:11;;;;;;;4.13;3.72;;;;;;;23.88;55.30;96022.09;5034244;28;20094;-27
2023/06/15 10:39:21;;;;;;;4.45;3.90;;;;;;;23.84;55.76;96021.66;5041376;28;20103;-27
2023/06/15 10:41:52;;;;;;;5.03;4.30;;;;;;;23.85;55.36;96023.16;5004078;28;20117;-27
2023/06/15 10:44:17;;;;;;;5.25;4.43;;;;;;;23.86;55.40;96027.41;5011359;28;20100;-27
2023/06/15 10:46:43;;;;;;;6.07;4.70;;;;;;;23.79;55.28;96033.56;5004033;28;20491;-27
2023/06/15 10:49:10;;;;;;;5.10;4.15;;;;;;;23.85;55.29;96028.72;5011126;28;20021;-27
2023/06/15 10:51:40;;;;;;;5.05;4.22;;;;;;;23.99;54.61;96037.81;5010303;28;20026;-28
2023/06/15 10:54:22;;;;;;;5.63;4.20;;;;;;;23.91;54.70;96037.69;5011198;28;20038;-27
2023/06/15 10:56:53;;;;;;;8.30;4.88;;;;;;;23.88;55.06;96026.88;5010954;28;20053;-28
2023/06/15 10:59:41;;;;;;;5.78;4.75;;;;;;;23.95;54.31;96031.84;5010886;28;20038;-26
2023/06/15 11:02:28;;;;;;;5.88;4.82;;;;;;;24.04;54.27;96036.25;5003755;28;20026;-27
2023/06/15 11:05:00;;;;;;;5.00;4.25;;;;;;;23.86;54.44;96048.84;5010042;28;20025;-27
2023/06/15 11:07:27;;;;;;;5.05;4.55;;;;;;;23.94;54.11;96042.19;4998215;28;20365;-28
2023/06/15 11:09:56;;;;;;;4.72;4.25;;;;;;;23.94;53.93;96042.19;5009097;28;20041;-27
2023/06/15 11:12:35;;;;;;;5.07;4.10;;;;;;;23.95;53.80;96032.59;5021465;28;20036;-27
2023/06/15 11:15:05;;;;;;;6.07;4.20;;;;;;;23.94;54.34;96035.88;5040876;28;20025;-27
2023/06/15 11:17:31;;;;;;;4.65;3.97;;;;;;;24.04;53.52;96045.31;5038101;28;20020;-27
2023/06/15 11:19:57;;;;;;;4.90;4.38;;;;;;;23.99;53.54;96037.81;5036125;28;20081;-27
2023/06/15 11:22:28;;;;;;;5.45;4.25;;;;;;;23.97;53.53;96034.84;5033808;28;20025;-27
2023/06/15 11:24:55;;;;;;;5.65;4.53;;;;;;;24.11;53.46;96038.44;5034892;28;20493;-28
2023/06/15 11:27:22;;;;;;;5.25;4.35;;;;;;;24.04;53.55;96036.25;5034139;28;20052;-27
2023/06/15 11:29:55;;;;;;;7.65;5.05;;;;;;;24.12;53.68;96035.09;5033245;28;20017;-26
2023/06/15 11:32:25;;;;;;;6.30;4.40;;;;;;;24.04;53.29;96050.84;5041274;28;20036;-27
2023/06/15 11:34:56;;;;;;;5.30;4.18;;;;;;;24.04;53.70;96039.00;5033821;28;20064;-26